createdAt,value
2022-09-23T00:02:06.541Z,64.98
2022-09-23T00:04:33.143Z,65.23
2022-09-23T00:06:59.780Z,64.37
2022-09-23T00:09:26.407Z,65.54
2022-09-23T00:11:52.927Z,64.36
2022-09-23T00:14:19.436Z,64.18
2022-09-23T00:16:45.986Z,64.45
2022-09-23T00:19:12.860Z,64.71
2022-09-23T00:21:39.363Z,64.87
2022-09-23T00:24:08.036Z,64.38
2022-09-23T00:26:34.720Z,64.46
2022-09-23T00:29:01.225Z,64.67
2022-09-23T00:31:28.169Z,64.25
2022-09-23T00:34:00.311Z,64.18
2022-09-23T00:36:28.777Z,63.92
2022-09-23T00:38:55.740Z,64.26
2022-09-23T00:41:22.769Z,64.42
2022-09-23T00:43:52.853Z,64.81
2022-09-23T00:46:28.181Z,64.87
2022-09-23T00:49:14.025Z,64.78
2022-09-23T00:51:46.683Z,64.72
2022-09-23T00:54:13.459Z,64.77
2022-09-23T00:56:40.371Z,66.54
2022-09-23T00:59:11.213Z,65.46
2022-09-23T01:01:38.303Z,64.93
2022-09-23T01:04:06.835Z,64.62
2022-09-23T01:06:33.467Z,65.56
2022-09-23T01:08:59.986Z,66.14
2022-09-23T01:11:44.732Z,65.51
2022-09-23T01:14:23.757Z,65.71
2022-09-23T01:17:04.518Z,65.71
2022-09-23T01:20:00.160Z,65.79
2022-09-23T01:22:44.549Z,65.80
2022-09-23T01:25:40.767Z,66.30
2022-09-23T01:28:20.838Z,65.56
2022-09-23T01:31:09.265Z,65.79
2022-09-23T01:33:46.132Z,65.98
2022-09-23T01:36:23.676Z,66.29
2022-09-23T01:39:05.583Z,66.40
2022-09-23T01:41:51.689Z,66.30
2022-09-23T01:44:49.911Z,65.94
2022-09-23T01:47:20.691Z,66.03
2022-09-23T01:49:57.631Z,66.00
2022-09-23T01:52:43.069Z,65.72
2022-09-23T01:55:20.921Z,65.86
2022-09-23T01:57:55.654Z,66.01
2022-09-23T02:00:23.305Z,65.72
2022-09-23T02:02:53.983Z,65.82
2022-09-23T02:05:30.483Z,65.52
2022-09-23T02:08:16.011Z,65.57
2022-09-23T02:10:47.121Z,66.68
2022-09-23T02:13:34.268Z,66.39
2022-09-23T02:16:03.912Z,65.90
2022-09-23T02:18:58.256Z,66.07
2022-09-23T02:21:29.356Z,65.77
2022-09-23T02:24:02.735Z,65.51
2022-09-23T02:26:35.997Z,66.83
2022-09-23T02:29:19.023Z,67.44
2022-09-23T02:32:14.563Z,67.42
2022-09-23T02:34:41.144Z,66.69
2022-09-23T02:37:37.174Z,66.88
2022-09-23T02:40:31.032Z,66.81
2022-09-23T02:43:12.619Z,67.22
2022-09-23T02:45:39.341Z,67.33
2022-09-23T02:48:12.027Z,67.83
2022-09-23T02:50:39.272Z,67.64
2022-09-23T02:53:06.527Z,68.09
2022-09-23T02:55:33.203Z,68.60
2022-09-23T02:58:01.448Z,68.50
2022-09-23T03:00:36.196Z,69.17
2022-09-23T03:03:15.753Z,68.90
2022-09-23T03:05:52.563Z,69.26
2022-09-23T03:08:30.099Z,69.11
2022-09-23T03:11:04.211Z,68.48
2022-09-23T03:13:55.955Z,68.06
2022-09-23T03:16:43.570Z,67.80
2022-09-23T03:19:28.543Z,68.28
2022-09-23T03:22:01.276Z,68.51
2022-09-23T03:24:31.247Z,67.99
2022-09-23T03:27:01.261Z,67.58
2022-09-23T03:29:29.068Z,67.70
2022-09-23T03:31:56.800Z,67.75
2022-09-23T03:34:27.491Z,67.64
2022-09-23T03:37:08.628Z,68.14
2022-09-23T03:40:10.017Z,68.38
2022-09-23T03:42:37.626Z,68.58
2022-09-23T03:45:08.288Z,69.85
2022-09-23T03:47:35.426Z,68.34
2022-09-23T03:50:02.002Z,68.09
2022-09-23T03:52:28.547Z,67.92
2022-09-23T03:54:55.118Z,67.88
2022-09-23T03:57:23.201Z,67.87
2022-09-23T03:59:50.611Z,67.26
2022-09-23T04:02:18.458Z,67.48
2022-09-23T04:04:45.655Z,67.16
2022-09-23T04:07:13.435Z,66.62
2022-09-23T04:09:40.328Z,67.14
2022-09-23T04:12:07.454Z,67.23
2022-09-23T04:14:34.104Z,66.84
2022-09-23T04:17:00.660Z,66.54
2022-09-23T04:19:27.620Z,66.60
2022-09-23T04:21:54.538Z,66.41
2022-09-23T04:24:21.725Z,67.17
2022-09-23T04:26:52.351Z,67.12
2022-09-23T04:29:19.725Z,67.36
2022-09-23T04:31:46.365Z,66.85
2022-09-23T04:34:13.235Z,66.11
2022-09-23T04:36:39.826Z,65.47
2022-09-23T04:39:06.733Z,65.76
2022-09-23T04:41:33.534Z,66.28
2022-09-23T04:44:00.118Z,66.11
2022-09-23T04:46:26.773Z,65.51
2022-09-23T04:48:53.368Z,65.46
2022-09-23T04:51:21.604Z,66.41
2022-09-23T04:53:49.686Z,66.59
2022-09-23T04:56:18.891Z,65.80
2022-09-23T04:58:46.116Z,65.39
2022-09-23T05:01:24.210Z,66.29
2022-09-23T05:03:53.636Z,66.24
2022-09-23T05:06:21.272Z,65.75
2022-09-23T05:08:50.209Z,66.06
2022-09-23T05:11:18.621Z,66.08
2022-09-23T05:13:49.121Z,66.28
2022-09-23T05:16:16.287Z,65.57
2022-09-23T05:18:44.069Z,65.47
2022-09-23T05:21:16.172Z,65.74
2022-09-23T05:23:43.223Z,65.51
2022-09-23T05:26:11.678Z,66.04
2022-09-23T05:28:39.379Z,65.86
2022-09-23T05:31:20.240Z,66.73
2022-09-23T05:33:51.673Z,66.82
2022-09-23T05:36:18.937Z,66.67
2022-09-23T05:38:45.549Z,65.85
2022-09-23T05:41:13.446Z,66.17
2022-09-23T05:43:40.948Z,65.66
2022-09-23T05:46:15.917Z,66.59
2022-09-23T05:48:44.107Z,66.88
2022-09-23T05:51:12.769Z,65.81
2022-09-23T05:53:46.847Z,66.12
2022-09-23T05:56:17.703Z,65.60
2022-09-23T05:58:44.617Z,66.03
2022-09-23T06:01:17.873Z,65.98
2022-09-23T06:03:55.349Z,66.19
2022-09-23T06:06:39.760Z,66.85
2022-09-23T06:09:07.854Z,66.39
2022-09-23T06:11:35.322Z,65.12
2022-09-23T06:14:02.550Z,66.04
2022-09-23T06:16:31.747Z,64.17
2022-09-23T06:19:05.034Z,64.24
2022-09-23T06:21:33.236Z,64.78
2022-09-23T06:24:00.585Z,63.43
2022-09-23T06:26:28.399Z,62.57
2022-09-23T06:28:55.012Z,62.00
2022-09-23T06:31:21.539Z,62.29
2022-09-23T06:33:49.993Z,61.90
2022-09-23T06:36:30.978Z,61.41
2022-09-23T06:39:03.760Z,62.62
2022-09-23T06:41:30.515Z,63.14
2022-09-23T06:43:58.010Z,62.94
2022-09-23T06:46:24.915Z,63.81
2022-09-23T06:48:51.761Z,61.42
2022-09-23T06:51:21.699Z,60.99
2022-09-23T06:53:49.098Z,61.61
2022-09-23T06:56:17.270Z,61.40
2022-09-23T06:58:43.933Z,60.25
2022-09-23T07:01:13.033Z,60.08
2022-09-23T07:03:39.719Z,60.29
2022-09-23T07:06:06.574Z,60.84
2022-09-23T07:08:34.299Z,60.25
2022-09-23T07:11:03.467Z,60.13
2022-09-23T07:13:30.523Z,59.99
2022-09-23T07:15:58.888Z,60.06
2022-09-23T07:18:26.801Z,59.11
2022-09-23T07:20:53.727Z,58.89
2022-09-23T07:23:20.720Z,58.76
2022-09-23T07:25:49.435Z,59.52
2022-09-23T07:28:16.065Z,58.36
2022-09-23T07:30:55.699Z,57.38
2022-09-23T07:33:32.329Z,56.92
2022-09-23T07:35:59.601Z,56.43
2022-09-23T07:38:29.939Z,55.71
2022-09-23T07:41:05.020Z,55.36
2022-09-23T07:43:32.504Z,54.95
2022-09-23T07:46:08.265Z,53.78
2022-09-23T07:48:35.998Z,55.06
2022-09-23T07:51:20.845Z,53.98
2022-09-23T07:53:49.114Z,53.33
2022-09-23T07:56:17.221Z,53.08
2022-09-23T07:58:43.791Z,52.86
2022-09-23T08:01:12.008Z,52.55
2022-09-23T08:03:39.377Z,52.75
2022-09-23T08:06:11.992Z,51.67
2022-09-23T08:08:40.446Z,51.77
2022-09-23T08:11:08.628Z,51.62
2022-09-23T08:13:35.158Z,51.88
2022-09-23T08:16:02.109Z,51.60
2022-09-23T08:18:28.753Z,50.42
2022-09-23T08:20:55.319Z,51.99
2022-09-23T08:23:21.981Z,51.62
2022-09-23T08:25:49.028Z,51.04
2022-09-23T08:28:18.852Z,51.02
2022-09-23T08:30:48.593Z,51.65
2022-09-23T08:33:19.631Z,51.11
2022-09-23T08:35:49.479Z,51.19
2022-09-23T08:38:16.078Z,50.56
2022-09-23T08:40:44.560Z,50.19
2022-09-23T08:43:29.010Z,50.05
2022-09-23T08:45:58.354Z,50.96
2022-09-23T08:48:34.738Z,51.30
2022-09-23T08:51:06.628Z,49.91
2022-09-23T08:53:36.000Z,49.96
2022-09-23T08:56:11.615Z,49.52
2022-09-23T08:59:02.020Z,47.50
2022-09-23T09:01:32.315Z,50.16
2022-09-23T09:04:01.341Z,49.66
2022-09-23T09:06:52.411Z,49.54
2022-09-23T09:09:27.222Z,48.71
2022-09-23T09:12:03.079Z,48.72
2022-09-23T09:14:48.365Z,48.61
2022-09-23T09:17:35.561Z,49.28
2022-09-23T09:20:09.477Z,48.67
2022-09-23T09:22:44.154Z,48.62
2022-09-23T09:25:38.732Z,50.37
2022-09-23T09:28:35.728Z,50.87
2022-09-23T09:31:26.661Z,49.14
2022-09-23T09:34:04.525Z,51.21
2022-09-23T09:36:47.237Z,49.32
2022-09-23T09:39:14.756Z,48.21
2022-09-23T09:41:51.974Z,49.36
2022-09-23T09:44:26.761Z,48.06
2022-09-23T09:47:15.105Z,48.17
2022-09-23T09:50:07.892Z,47.29
2022-09-23T09:52:38.369Z,47.21
2022-09-23T09:55:13.757Z,48.06
2022-09-23T09:57:55.292Z,46.01
2022-09-23T10:00:21.822Z,50.03
2022-09-23T10:02:53.369Z,47.61
2022-09-23T10:05:25.931Z,49.18
2022-09-23T10:07:52.670Z,47.24
2022-09-23T10:10:39.524Z,47.67
2022-09-23T10:13:14.794Z,48.13
2022-09-23T10:15:45.034Z,47.80
2022-09-23T10:18:19.593Z,48.02
2022-09-23T10:20:47.234Z,47.42
2022-09-23T10:23:21.217Z,47.87
2022-09-23T10:26:00.103Z,46.62
2022-09-23T10:28:50.496Z,45.42
2022-09-23T10:31:26.746Z,47.44
2022-09-23T10:34:00.306Z,43.95
2022-09-23T10:36:28.493Z,47.77
2022-09-23T10:39:22.557Z,48.63
2022-09-23T10:42:16.698Z,46.28
2022-09-23T10:45:43.297Z,45.16
2022-09-23T10:48:36.594Z,44.29
2022-09-23T10:51:14.561Z,46.34
2022-09-23T10:53:59.204Z,45.95
2022-09-23T10:56:33.942Z,45.92
2022-09-23T10:59:06.963Z,45.40
2022-09-23T11:02:03.285Z,41.70
2022-09-23T11:04:42.010Z,42.25
2022-09-23T11:07:44.863Z,44.95
2022-09-23T11:10:35.201Z,44.15
2022-09-23T11:13:36.112Z,42.85
2022-09-23T11:16:25.729Z,44.16
2022-09-23T11:19:04.858Z,45.23
2022-09-23T11:21:53.046Z,40.94
2022-09-23T11:24:50.978Z,44.43
2022-09-23T11:27:35.792Z,43.65
2022-09-23T11:30:21.161Z,43.66
2022-09-23T11:33:06.565Z,41.86
2022-09-23T11:35:45.828Z,42.92
2022-09-23T11:38:18.708Z,42.80
2022-09-23T11:40:46.633Z,44.08
2022-09-23T11:43:23.493Z,42.91
2022-09-23T11:46:09.863Z,41.30
2022-09-23T11:48:44.097Z,41.65
2022-09-23T11:51:16.530Z,43.76
2022-09-23T11:53:57.435Z,44.22
2022-09-23T11:56:35.916Z,43.23
2022-09-23T11:59:32.267Z,42.58
2022-09-23T12:02:20.821Z,42.63
2022-09-23T12:05:08.960Z,42.77
2022-09-23T12:07:47.943Z,42.45
2022-09-23T12:10:15.675Z,41.28
2022-09-23T12:13:05.001Z,40.31
2022-09-23T12:16:02.749Z,42.98
2022-09-23T12:19:13.993Z,40.01
2022-09-23T12:21:53.259Z,41.05
2022-09-23T12:24:38.680Z,42.62
2022-09-23T12:27:11.051Z,40.97
2022-09-23T12:29:38.602Z,41.58
2022-09-23T12:32:10.147Z,40.92
2022-09-23T12:34:49.995Z,39.72
2022-09-23T12:37:29.149Z,40.38
2022-09-23T12:40:00.046Z,40.14
2022-09-23T12:42:30.962Z,40.06
2022-09-23T12:45:38.616Z,41.20
2022-09-23T12:48:26.610Z,40.00
2022-09-23T12:51:16.388Z,38.96
2022-09-23T12:53:52.491Z,40.32
2022-09-23T12:56:24.791Z,40.96
2022-09-23T12:58:51.220Z,42.11
2022-09-23T13:01:20.165Z,41.36
2022-09-23T13:04:08.605Z,41.42
2022-09-23T13:06:40.880Z,41.86
2022-09-23T13:09:11.108Z,41.88
2022-09-23T13:11:40.417Z,43.75
2022-09-23T13:14:07.864Z,41.56
2022-09-23T13:16:38.130Z,42.05
2022-09-23T13:19:06.443Z,40.79
2022-09-23T13:21:45.871Z,41.43
2022-09-23T13:24:12.709Z,41.38
2022-09-23T13:26:43.689Z,41.19
2022-09-23T13:29:15.829Z,41.72
2022-09-23T13:31:42.720Z,41.58
2022-09-23T13:34:13.189Z,40.86
2022-09-23T13:36:44.665Z,41.44
2022-09-23T13:39:24.602Z,40.18
2022-09-23T13:41:53.662Z,42.58
2022-09-23T13:44:20.901Z,43.05
2022-09-23T13:46:50.503Z,43.34
2022-09-23T13:49:25.728Z,41.99
2022-09-23T13:51:54.136Z,41.29
2022-09-23T13:54:33.416Z,41.09
2022-09-23T13:57:00.347Z,41.09
2022-09-23T13:59:41.946Z,40.88
2022-09-23T14:02:13.933Z,40.23
2022-09-23T14:04:40.561Z,41.90
2022-09-23T14:07:08.296Z,40.07
2022-09-23T14:09:37.971Z,43.65
2022-09-23T14:12:05.734Z,42.38
2022-09-23T14:14:35.197Z,40.29
2022-09-23T14:17:02.558Z,40.73
2022-09-23T14:19:29.246Z,39.42
2022-09-23T14:21:56.617Z,39.55
2022-09-23T14:24:25.518Z,41.03
2022-09-23T14:26:53.807Z,39.39
2022-09-23T14:29:41.274Z,39.20
2022-09-23T14:32:17.942Z,39.03
2022-09-23T14:34:48.387Z,40.06
2022-09-23T14:37:44.020Z,38.87
2022-09-23T14:40:36.098Z,37.58
2022-09-23T14:43:05.607Z,37.69
2022-09-23T14:45:41.759Z,41.10
2022-09-23T14:48:21.381Z,40.02
2022-09-23T14:50:50.449Z,38.94
2022-09-23T14:53:16.936Z,42.70
2022-09-23T14:55:44.088Z,42.65
2022-09-23T14:58:15.936Z,42.26
2022-09-23T15:00:56.407Z,43.28
2022-09-23T15:03:23.158Z,39.99
2022-09-23T15:05:51.966Z,41.94
2022-09-23T15:08:23.687Z,39.91
2022-09-23T15:10:50.392Z,41.13
2022-09-23T15:13:19.383Z,42.34
2022-09-23T15:15:46.202Z,42.16
2022-09-23T15:18:18.715Z,40.49
2022-09-23T15:20:53.817Z,41.01
2022-09-23T15:23:39.116Z,42.66
2022-09-23T15:26:08.752Z,42.51
2022-09-23T15:28:35.264Z,41.04
2022-09-23T15:31:03.032Z,41.33
2022-09-23T15:33:29.900Z,42.49
2022-09-23T15:35:56.960Z,42.12
2022-09-23T15:38:23.836Z,44.93
2022-09-23T15:40:50.592Z,45.83
2022-09-23T15:43:21.187Z,44.92
2022-09-23T15:46:06.063Z,44.90
2022-09-23T15:48:42.263Z,46.56
2022-09-23T15:51:09.823Z,47.12
2022-09-23T15:53:38.141Z,47.37
2022-09-23T15:56:06.234Z,48.70
2022-09-23T15:58:33.120Z,49.38
2022-09-23T16:01:00.909Z,48.77
2022-09-23T16:03:30.472Z,48.86
2022-09-23T16:06:02.898Z,49.05
2022-09-23T16:08:30.070Z,49.41
2022-09-23T16:10:56.678Z,49.01
2022-09-23T16:13:23.284Z,49.49
2022-09-23T16:15:49.997Z,48.28
2022-09-23T16:18:16.639Z,50.10
2022-09-23T16:20:44.663Z,50.45
2022-09-23T16:23:35.866Z,51.13
2022-09-23T16:26:17.135Z,48.77
2022-09-23T16:28:44.792Z,50.90
2022-09-23T16:31:11.899Z,49.46
2022-09-23T16:33:38.706Z,48.92
2022-09-23T16:36:07.882Z,49.75
2022-09-23T16:38:34.482Z,51.25
2022-09-23T16:41:01.391Z,49.32
2022-09-23T16:43:32.694Z,51.10
2022-09-23T16:45:59.427Z,52.14
2022-09-23T16:48:26.054Z,52.12
2022-09-23T16:50:53.971Z,53.21
2022-09-23T16:53:20.593Z,52.92
2022-09-23T16:55:47.279Z,53.66
2022-09-23T16:58:13.825Z,54.05
2022-09-23T17:01:18.616Z,54.16
2022-09-23T17:03:47.172Z,54.38
2022-09-23T17:06:15.017Z,54.96
2022-09-23T17:08:42.702Z,54.97
2022-09-23T17:11:16.158Z,54.71
2022-09-23T17:13:43.934Z,55.36
2022-09-23T17:16:11.838Z,55.64
2022-09-23T17:18:41.334Z,55.95
2022-09-23T17:21:08.006Z,57.03
2022-09-23T17:23:35.905Z,57.52
2022-09-23T17:26:02.940Z,57.38
2022-09-23T17:28:29.553Z,57.26
2022-09-23T17:30:58.134Z,57.05
2022-09-23T17:33:29.349Z,56.79
2022-09-23T17:35:56.830Z,57.15
2022-09-23T17:38:28.618Z,57.47
2022-09-23T17:40:57.539Z,57.26
2022-09-23T17:43:25.044Z,57.75
2022-09-23T17:45:56.725Z,57.53
2022-09-23T17:48:25.379Z,57.56
2022-09-23T17:50:59.130Z,57.51
2022-09-23T17:53:26.183Z,57.66
2022-09-23T17:56:00.499Z,56.95
2022-09-23T17:58:28.721Z,57.01
2022-09-23T18:00:56.327Z,57.38
2022-09-23T18:03:24.401Z,57.95
2022-09-23T18:05:50.993Z,58.40
2022-09-23T18:08:17.967Z,58.16
2022-09-23T18:10:44.683Z,57.70
2022-09-23T18:13:11.211Z,58.67
2022-09-23T18:15:39.021Z,57.82
2022-09-23T18:18:05.636Z,57.26
2022-09-23T18:20:32.722Z,56.75
2022-09-23T18:22:59.489Z,57.86
2022-09-23T18:25:39.072Z,57.85
2022-09-23T18:28:06.455Z,57.89
2022-09-23T18:30:33.938Z,57.78
2022-09-23T18:33:01.553Z,58.23
2022-09-23T18:35:31.485Z,58.17
2022-09-23T18:37:58.096Z,58.44
2022-09-23T18:40:24.692Z,58.48
2022-09-23T18:42:51.528Z,58.25
2022-09-23T18:45:18.221Z,58.73
2022-09-23T18:48:07.674Z,58.97
2022-09-23T18:50:40.249Z,59.31
2022-09-23T18:53:07.881Z,59.37
2022-09-23T18:55:35.629Z,59.17
2022-09-23T18:58:02.190Z,59.09
2022-09-23T19:00:29.146Z,59.10
2022-09-23T19:02:57.757Z,59.36
2022-09-23T19:05:24.357Z,59.14
2022-09-23T19:07:51.331Z,59.03
2022-09-23T19:10:19.152Z,59.15
2022-09-23T19:12:46.605Z,59.57
2022-09-23T19:15:14.191Z,59.83
2022-09-23T19:17:40.857Z,59.78
2022-09-23T19:20:08.099Z,59.81
2022-09-23T19:22:34.805Z,60.25
2022-09-23T19:25:01.469Z,60.02
2022-09-23T19:27:28.684Z,61.59
2022-09-23T19:29:55.382Z,61.24
2022-09-23T19:32:27.005Z,61.06
2022-09-23T19:34:53.709Z,61.14
2022-09-23T19:37:20.272Z,61.31
2022-09-23T19:39:47.622Z,61.35
2022-09-23T19:42:14.363Z,61.43
2022-09-23T19:44:41.186Z,62.08
2022-09-23T19:47:10.216Z,62.35
2022-09-23T19:49:36.824Z,62.36
2022-09-23T19:52:03.367Z,62.57
2022-09-23T19:54:29.870Z,62.49
2022-09-23T19:56:56.474Z,62.98
2022-09-23T19:59:23.135Z,63.07
2022-09-23T20:01:49.759Z,63.18
2022-09-23T20:04:17.080Z,63.20
2022-09-23T20:06:45.850Z,63.60
2022-09-23T20:09:12.507Z,62.99
2022-09-23T20:11:40.581Z,62.98
2022-09-23T20:14:07.251Z,63.30
2022-09-23T20:16:35.783Z,63.63
2022-09-23T20:19:04.388Z,63.83
2022-09-23T20:21:31.431Z,63.81
2022-09-23T20:23:58.316Z,64.21
2022-09-23T20:26:43.580Z,64.07
2022-09-23T20:29:11.064Z,64.64
2022-09-23T20:31:40.331Z,64.36
2022-09-23T20:34:08.288Z,64.01
2022-09-23T20:36:36.031Z,64.06
2022-09-23T20:39:06.223Z,64.14
2022-09-23T20:41:37.617Z,64.33
2022-09-23T20:44:07.350Z,63.81
2022-09-23T20:46:34.371Z,64.35
2022-09-23T20:49:01.987Z,64.34
2022-09-23T20:51:28.740Z,64.16
2022-09-23T20:53:55.804Z,64.79
2022-09-23T20:56:22.677Z,64.58
2022-09-23T20:58:50.685Z,64.53
2022-09-23T21:01:17.774Z,64.60
2022-09-23T21:03:46.216Z,65.00
2022-09-23T21:06:14.483Z,64.80
2022-09-23T21:08:42.195Z,65.09
2022-09-23T21:11:14.918Z,64.88
2022-09-23T21:13:47.060Z,65.42
2022-09-23T21:16:15.893Z,64.92
2022-09-23T21:18:43.460Z,65.14
2022-09-23T21:21:10.955Z,65.41
2022-09-23T21:23:39.543Z,65.22
2022-09-23T21:26:08.746Z,65.33
2022-09-23T21:28:42.790Z,65.03
2022-09-23T21:31:27.038Z,65.24
2022-09-23T21:34:12.599Z,65.55
2022-09-23T21:36:42.690Z,65.65
2022-09-23T21:39:10.511Z,65.42
2022-09-23T21:41:37.829Z,65.50
2022-09-23T21:44:05.260Z,65.48
2022-09-23T21:46:33.898Z,65.79
2022-09-23T21:49:02.168Z,65.91
2022-09-23T21:51:40.459Z,66.17
2022-09-23T21:54:11.895Z,66.06
2022-09-23T21:56:38.479Z,66.00
2022-09-23T21:59:05.714Z,66.27
2022-09-23T22:01:35.015Z,66.15
2022-09-23T22:04:08.432Z,65.87
2022-09-23T22:06:38.026Z,65.81
2022-09-23T22:09:08.882Z,65.56
2022-09-23T22:11:55.467Z,65.81
2022-09-23T22:14:26.385Z,66.04
2022-09-23T22:16:57.262Z,66.17
2022-09-23T22:19:32.801Z,66.47
2022-09-23T22:21:59.395Z,66.69
2022-09-23T22:24:25.997Z,66.46
2022-09-23T22:26:52.676Z,66.46
2022-09-23T22:29:38.202Z,66.76
2022-09-23T22:32:24.591Z,66.16
2022-09-23T22:34:52.721Z,66.00
2022-09-23T22:37:21.740Z,66.82
2022-09-23T22:39:48.403Z,66.83
2022-09-23T22:42:14.979Z,66.98
2022-09-23T22:44:41.580Z,67.15
2022-09-23T22:47:09.784Z,67.68
2022-09-23T22:49:36.647Z,67.26
2022-09-23T22:52:06.949Z,67.41
2022-09-23T22:54:34.596Z,67.01
2022-09-23T22:57:03.965Z,67.48
2022-09-23T22:59:30.689Z,67.34
2022-09-23T23:01:59.749Z,67.00
2022-09-23T23:04:26.992Z,66.96
2022-09-23T23:06:53.566Z,66.67
2022-09-23T23:09:20.162Z,66.76
2022-09-23T23:11:47.167Z,66.62
2022-09-23T23:14:16.447Z,66.52
2022-09-23T23:16:43.962Z,66.48
2022-09-23T23:19:13.401Z,66.53
2022-09-23T23:21:43.456Z,66.39
2022-09-23T23:24:23.986Z,66.83
2022-09-23T23:26:51.514Z,66.71
2022-09-23T23:29:19.943Z,66.92
2022-09-23T23:31:47.272Z,66.65
2022-09-23T23:34:16.673Z,66.82
2022-09-23T23:36:44.291Z,66.38
2022-09-23T23:39:11.400Z,66.42
2022-09-23T23:41:39.450Z,66.54
2022-09-23T23:44:07.770Z,66.88
2022-09-23T23:46:34.618Z,67.02
2022-09-23T23:49:01.295Z,67.11
2022-09-23T23:51:27.947Z,67.14
2022-09-23T23:53:55.364Z,67.22
2022-09-23T23:56:23.986Z,67.14
2022-09-23T23:58:58.267Z,67.37
